createdAt,value
2023-02-06T07:23:01.433Z,30.42
2023-02-06T07:25:35.196Z,30.52
2023-02-06T07:28:06.114Z,30.12
2023-02-06T07:30:40.876Z,30.22
2023-02-06T07:33:08.569Z,30.37
2023-02-06T07:35:47.440Z,30.16
2023-02-06T07:38:17.549Z,30.09
2023-02-06T07:40:50.790Z,29.94
2023-02-06T07:43:20.869Z,30.13
2023-02-06T07:45:50.605Z,30.08
2023-02-06T07:48:18.295Z,30.27
2023-02-06T07:50:45.973Z,29.80
2023-02-06T07:53:22.492Z,30.09
2023-02-06T07:55:51.096Z,29.97
2023-02-06T07:58:21.565Z,29.95
2023-02-06T08:00:49.105Z,29.77
2023-02-06T08:03:21.933Z,29.99
2023-02-06T08:05:52.539Z,29.84
2023-02-06T08:08:19.988Z,29.53
2023-02-06T08:10:50.439Z,29.61
2023-02-06T08:13:20.922Z,29.73
2023-02-06T08:15:48.767Z,30.12
2023-02-06T08:18:21.917Z,29.70
2023-02-06T08:20:51.559Z,29.96
2023-02-06T08:23:20.951Z,29.50
2023-02-06T08:25:49.607Z,29.78
2023-02-06T08:28:17.588Z,29.61
2023-02-06T08:30:45.799Z,29.58
2023-02-06T08:33:21.332Z,29.36
2023-02-06T08:36:24.542Z,29.59
2023-02-06T08:38:55.152Z,29.63
2023-02-06T08:41:25.591Z,29.64
2023-02-06T08:43:59.552Z,29.38
2023-02-06T08:46:32.601Z,29.54
2023-02-06T08:49:11.074Z,29.21
2023-02-06T08:51:43.641Z,29.40
2023-02-06T08:54:20.793Z,29.35
2023-02-06T08:56:57.616Z,29.32
2023-02-06T08:59:31.936Z,29.41
2023-02-06T09:02:02.692Z,29.70
2023-02-06T09:04:38.856Z,29.84
2023-02-06T09:07:06.870Z,29.63
2023-02-06T09:09:37.434Z,29.41
2023-02-06T09:12:15.500Z,29.08
2023-02-06T09:14:48.441Z,29.20
2023-02-06T09:17:23.862Z,29.43
2023-02-06T09:19:57.268Z,29.24
2023-02-06T09:22:28.428Z,28.92
2023-02-06T09:25:02.853Z,29.38
2023-02-06T09:27:33.697Z,29.94
2023-02-06T09:30:04.726Z,29.32
2023-02-06T09:32:38.288Z,29.46
2023-02-06T09:35:12.032Z,29.58
2023-02-06T09:37:48.800Z,29.41
2023-02-06T09:40:24.519Z,29.29
2023-02-06T09:42:58.914Z,29.23
2023-02-06T09:45:35.705Z,29.43
2023-02-06T09:48:17.661Z,29.37
2023-02-06T09:50:56.055Z,29.20
2023-02-06T09:53:48.307Z,29.29
2023-02-06T09:56:43.245Z,29.02
2023-02-06T09:59:24.096Z,29.02
2023-02-06T10:02:07.714Z,29.45
2023-02-06T10:05:20.746Z,29.34
2023-02-06T10:08:34.262Z,28.84
2023-02-06T10:11:28.667Z,29.32
2023-02-06T10:14:06.948Z,29.34
2023-02-06T10:17:36.652Z,28.98
2023-02-06T10:20:15.995Z,29.45
2023-02-06T10:23:30.802Z,28.91
2023-02-06T10:26:07.418Z,29.28
2023-02-06T10:28:35.501Z,29.57
2023-02-06T10:31:21.165Z,29.41
2023-02-06T10:33:57.986Z,29.38
2023-02-06T10:36:49.627Z,29.24
2023-02-06T10:39:40.995Z,28.89
2023-02-06T10:42:52.102Z,28.99
2023-02-06T10:45:34.443Z,28.99
2023-02-06T10:48:34.269Z,28.98
2023-02-06T10:51:45.644Z,28.80
2023-02-06T10:54:26.798Z,28.97
2023-02-06T10:56:58.417Z,29.29
2023-02-06T10:59:34.236Z,29.22
2023-02-06T11:02:08.115Z,28.98
2023-02-06T11:04:55.286Z,29.17
2023-02-06T11:07:45.278Z,29.18
2023-02-06T11:10:16.643Z,28.95
2023-02-06T11:12:58.337Z,29.23
2023-02-06T11:15:43.329Z,28.97
2023-02-06T11:18:17.600Z,28.89
2023-02-06T11:20:50.934Z,28.55
2023-02-06T11:23:29.186Z,28.82
2023-02-06T11:26:16.873Z,28.91
2023-02-06T11:28:59.915Z,29.13
2023-02-06T11:31:58.681Z,29.03
2023-02-06T11:35:04.917Z,28.88
2023-02-06T11:37:44.639Z,28.65
2023-02-06T11:40:28.454Z,28.23
2023-02-06T11:43:25.884Z,28.50
2023-02-06T11:46:06.956Z,28.52
2023-02-06T11:48:40.500Z,28.42
2023-02-06T11:51:18.150Z,28.32
2023-02-06T11:54:22.870Z,28.36
2023-02-06T11:57:08.220Z,28.65
2023-02-06T12:00:00.240Z,28.05
2023-02-06T12:02:30.759Z,28.26
2023-02-06T12:05:25.144Z,28.18
2023-02-06T12:08:19.079Z,28.46
2023-02-06T12:11:07.001Z,28.10
2023-02-06T12:13:49.766Z,28.34
2023-02-06T12:16:27.402Z,28.14
2023-02-06T12:19:04.206Z,28.28
2023-02-06T12:21:53.885Z,28.65
2023-02-06T12:24:36.722Z,28.49
2023-02-06T12:27:44.486Z,28.08
2023-02-06T12:30:32.789Z,27.97
2023-02-06T12:33:10.161Z,28.10
2023-02-06T12:35:49.044Z,28.25
2023-02-06T12:38:43.386Z,28.63
2023-02-06T12:41:50.254Z,28.57
2023-02-06T12:44:29.053Z,28.50
2023-02-06T12:47:07.652Z,28.22
2023-02-06T12:50:13.692Z,28.73
2023-02-06T12:53:11.179Z,28.33
2023-02-06T12:55:51.883Z,28.64
2023-02-06T12:58:51.646Z,28.93
2023-02-06T13:01:33.037Z,28.42
2023-02-06T13:04:24.717Z,28.34
2023-02-06T13:07:00.118Z,28.33
2023-02-06T13:09:41.796Z,28.39
2023-02-06T13:12:25.541Z,28.02
2023-02-06T13:15:01.071Z,27.97
2023-02-06T13:17:42.799Z,28.20
2023-02-06T13:20:24.455Z,28.49
2023-02-06T13:23:14.057Z,27.75
2023-02-06T13:25:44.264Z,27.84
2023-02-06T13:28:25.575Z,27.62
2023-02-06T13:31:07.361Z,27.78
2023-02-06T13:34:01.548Z,28.03
2023-02-06T13:36:50.233Z,28.50
2023-02-06T13:39:34.025Z,27.41
2023-02-06T13:42:43.414Z,27.61
2023-02-06T13:45:25.616Z,28.22
2023-02-06T13:48:12.204Z,27.92
2023-02-06T13:50:54.986Z,28.02
2023-02-06T13:53:56.450Z,27.89
2023-02-06T13:56:45.740Z,28.09
2023-02-06T13:59:24.930Z,28.22
2023-02-06T14:01:59.209Z,27.96
2023-02-06T14:04:43.860Z,28.39
2023-02-06T14:07:34.764Z,27.95
2023-02-06T14:10:56.241Z,27.80
2023-02-06T14:13:52.154Z,28.11
2023-02-06T14:16:38.324Z,28.70
2023-02-06T14:19:20.688Z,28.73
2023-02-06T14:22:33.677Z,28.09
2023-02-06T14:25:39.502Z,28.30
2023-02-06T14:28:47.145Z,27.97
2023-02-06T14:31:38.818Z,28.12
2023-02-06T14:34:22.783Z,27.55
2023-02-06T14:37:10.250Z,28.39
2023-02-06T14:40:04.412Z,28.48
2023-02-06T14:42:39.049Z,28.54
2023-02-06T14:45:18.659Z,28.28
2023-02-06T14:47:50.201Z,27.94
2023-02-06T14:50:25.215Z,28.16
2023-02-06T14:53:00.800Z,28.49
2023-02-06T14:55:36.598Z,27.96
2023-02-06T14:58:28.326Z,27.86
2023-02-06T15:01:32.574Z,27.63
2023-02-06T15:04:14.687Z,27.81
2023-02-06T15:07:03.302Z,28.22
2023-02-06T15:09:46.756Z,28.58
2023-02-06T15:12:25.223Z,28.34
2023-02-06T15:15:01.019Z,28.36
2023-02-06T15:17:35.146Z,28.37
2023-02-06T15:20:30.931Z,28.70
2023-02-06T15:23:21.767Z,28.44
2023-02-06T15:26:03.405Z,27.48
2023-02-06T15:28:41.506Z,27.26
2023-02-06T15:31:23.671Z,27.12
2023-02-06T15:33:59.708Z,27.72
2023-02-06T15:36:38.541Z,28.06
2023-02-06T15:39:15.406Z,28.35
2023-02-06T15:41:52.062Z,28.08
2023-02-06T15:44:26.069Z,28.05
2023-02-06T15:47:06.646Z,27.81
2023-02-06T15:49:41.496Z,27.45
2023-02-06T15:52:32.029Z,28.00
2023-02-06T15:55:10.937Z,28.26
2023-02-06T15:57:43.817Z,27.96
2023-02-06T16:00:27.866Z,28.48
2023-02-06T16:03:17.734Z,28.43
2023-02-06T16:05:52.570Z,28.24
2023-02-06T16:08:27.597Z,28.35
2023-02-06T16:11:03.273Z,28.75
2023-02-06T16:13:39.735Z,28.66
2023-02-06T16:16:28.528Z,29.07
2023-02-06T16:19:02.441Z,28.63
2023-02-06T16:21:35.411Z,28.46
2023-02-06T16:24:16.694Z,28.72
2023-02-06T16:26:50.173Z,28.55
2023-02-06T16:29:27.608Z,28.45
2023-02-06T16:32:13.523Z,28.28
2023-02-06T16:34:48.811Z,28.17
2023-02-06T16:37:28.590Z,28.50
2023-02-06T16:40:02.537Z,27.67
2023-02-06T16:42:41.555Z,28.29
2023-02-06T16:45:22.516Z,28.46
2023-02-06T16:47:56.202Z,28.80
2023-02-06T16:50:30.234Z,28.40
2023-02-06T16:53:03.629Z,27.92
2023-02-06T16:55:33.497Z,28.30
2023-02-06T16:58:10.165Z,28.50
2023-02-06T17:00:43.427Z,28.21
2023-02-06T17:03:18.076Z,28.24
2023-02-06T17:05:50.511Z,28.37
2023-02-06T17:08:24.135Z,28.06
2023-02-06T17:10:54.666Z,28.57
2023-02-06T17:13:27.269Z,28.07
2023-02-06T17:16:03.681Z,28.36
2023-02-06T17:18:37.158Z,28.22
2023-02-06T17:21:09.535Z,28.29
2023-02-06T17:23:40.628Z,28.45
2023-02-06T17:26:17.425Z,28.23
2023-02-06T17:28:53.642Z,28.00
2023-02-06T17:31:29.081Z,28.25
2023-02-06T17:33:59.927Z,28.42
2023-02-06T17:36:30.105Z,28.50
2023-02-06T17:39:06.369Z,28.20
2023-02-06T17:41:36.893Z,28.29
2023-02-06T17:44:12.175Z,28.29
2023-02-06T17:46:44.496Z,27.74
2023-02-06T17:49:15.427Z,28.06
2023-02-06T17:51:43.861Z,28.03
2023-02-06T17:54:17.213Z,28.03
2023-02-06T17:56:44.927Z,28.38
2023-02-06T17:59:21.469Z,28.51
2023-02-06T18:01:54.000Z,28.60
2023-02-06T18:04:26.561Z,28.59
2023-02-06T18:07:04.637Z,28.50
2023-02-06T18:09:31.933Z,28.27
2023-02-06T18:12:04.259Z,28.19
2023-02-06T18:14:33.456Z,28.34
2023-02-06T18:17:03.491Z,28.38
2023-02-06T18:19:30.877Z,28.29
2023-02-06T18:22:01.534Z,28.26
2023-02-06T18:24:37.134Z,28.39
2023-02-06T18:27:12.947Z,28.49
2023-02-06T18:29:49.502Z,28.32
2023-02-06T18:32:21.937Z,28.05
2023-02-06T18:34:54.593Z,28.35
2023-02-06T18:37:26.537Z,28.32
2023-02-06T18:39:56.348Z,28.20
2023-02-06T18:42:47.293Z,28.08
2023-02-06T18:45:31.287Z,28.00
2023-02-06T18:48:07.465Z,28.12
2023-02-06T18:50:41.497Z,27.64
2023-02-06T18:53:11.741Z,28.19
2023-02-06T18:55:40.431Z,28.12
2023-02-06T18:59:18.405Z,27.89
2023-02-06T19:01:45.938Z,27.77
2023-02-06T19:04:21.865Z,27.81
2023-02-06T19:06:54.491Z,27.43
2023-02-06T19:09:24.630Z,27.61
2023-02-06T19:11:55.504Z,27.44
2023-02-06T19:14:25.509Z,27.16
2023-02-06T19:16:55.534Z,27.50
2023-02-06T19:19:25.015Z,27.59
2023-02-06T19:21:52.358Z,27.37
2023-02-06T19:24:23.347Z,27.66
2023-02-06T19:26:53.182Z,27.43
2023-02-06T19:29:34.831Z,27.43
2023-02-06T19:32:08.155Z,27.26
2023-02-06T19:34:39.731Z,27.46
2023-02-06T19:37:08.942Z,27.56
2023-02-06T19:39:40.400Z,27.77
2023-02-06T19:42:16.972Z,27.49
2023-02-06T19:44:50.856Z,27.48
2023-02-06T19:47:23.643Z,27.24
2023-02-06T19:49:56.235Z,27.62
2023-02-06T19:52:29.402Z,27.32
2023-02-06T19:54:56.750Z,27.26
2023-02-06T19:57:28.844Z,27.42
2023-02-06T19:59:58.433Z,27.21
2023-02-06T20:02:25.730Z,27.14
2023-02-06T20:04:55.398Z,27.19
2023-02-06T20:07:28.193Z,26.80
2023-02-06T20:09:58.466Z,27.11
2023-02-06T20:12:29.245Z,27.00
2023-02-06T20:15:00.312Z,26.82
2023-02-06T20:17:32.456Z,26.49
2023-02-06T20:20:02.045Z,26.89
2023-02-06T20:22:30.147Z,27.00
2023-02-06T20:25:04.973Z,26.74
2023-02-06T20:27:37.390Z,26.88
2023-02-06T20:30:08.040Z,26.78
2023-02-06T20:32:37.715Z,27.02
2023-02-06T20:35:09.426Z,27.00
2023-02-06T20:37:39.484Z,26.86
2023-02-06T20:40:07.028Z,26.57
2023-02-06T20:42:44.434Z,26.78
2023-02-06T20:45:20.475Z,26.39
2023-02-06T20:47:50.527Z,26.55
2023-02-06T20:50:23.089Z,26.74
2023-02-06T20:52:53.593Z,26.52
2023-02-06T20:55:20.929Z,26.58
2023-02-06T20:57:50.990Z,26.31
2023-02-06T21:00:20.687Z,26.40
2023-02-06T21:02:53.026Z,26.10
2023-02-06T21:05:27.020Z,26.19
2023-02-06T21:07:57.656Z,26.37
2023-02-06T21:10:25.578Z,26.31
2023-02-06T21:12:55.516Z,26.61
2023-02-06T21:15:26.720Z,26.54
2023-02-06T21:17:54.252Z,26.24
2023-02-06T21:20:26.493Z,26.05
2023-02-06T21:22:56.606Z,26.08
2023-02-06T21:25:25.844Z,26.17
2023-02-06T21:28:00.940Z,26.12
2023-02-06T21:30:30.419Z,26.15
2023-02-06T21:33:03.656Z,26.27
2023-02-06T21:35:33.696Z,26.23
2023-02-06T21:38:14.442Z,25.97
2023-02-06T21:40:44.946Z,26.12
2023-02-06T21:43:17.358Z,25.87
2023-02-06T21:45:46.417Z,26.04
2023-02-06T21:48:16.033Z,25.77
2023-02-06T21:50:44.827Z,25.67
2023-02-06T21:53:17.629Z,26.12
2023-02-06T21:55:45.551Z,26.26
2023-02-06T21:58:16.457Z,25.85
2023-02-06T22:00:45.961Z,25.75
2023-02-06T22:03:14.000Z,25.89
2023-02-06T22:05:44.536Z,25.81
2023-02-06T22:08:17.348Z,25.63
2023-02-06T22:10:44.733Z,25.60
2023-02-06T22:13:19.227Z,25.78
2023-02-06T22:15:51.359Z,25.52
2023-02-06T22:18:21.373Z,25.42
2023-02-06T22:20:52.146Z,25.25
2023-02-06T22:23:20.004Z,25.38
2023-02-06T22:25:50.146Z,25.11
2023-02-06T22:28:17.453Z,25.10
2023-02-06T22:30:50.160Z,25.47
2023-02-06T22:33:22.454Z,25.63
2023-02-06T22:35:52.079Z,25.51
2023-02-06T22:38:21.881Z,25.31
2023-02-06T22:41:01.780Z,25.05
2023-02-06T22:43:39.662Z,24.78
2023-02-06T22:46:10.095Z,25.08
2023-02-06T22:48:39.805Z,24.91
2023-02-06T22:51:09.977Z,25.05
2023-02-06T22:53:44.758Z,25.86
2023-02-06T22:56:31.142Z,25.54
2023-02-06T22:59:15.219Z,25.21
2023-02-06T23:01:47.743Z,25.32
2023-02-06T23:04:26.015Z,25.36
2023-02-06T23:06:53.627Z,25.69
2023-02-06T23:09:25.389Z,25.19
2023-02-06T23:11:53.629Z,25.41
2023-02-06T23:14:20.908Z,25.25
2023-02-06T23:16:49.061Z,25.44
2023-02-06T23:19:17.544Z,25.52
2023-02-06T23:21:46.915Z,25.41
2023-02-06T23:24:15.064Z,25.47
2023-02-06T23:26:51.583Z,24.99
2023-02-06T23:29:23.025Z,25.23
2023-02-06T23:31:50.841Z,25.53
2023-02-06T23:34:23.742Z,25.72
2023-02-06T23:36:51.983Z,25.64
2023-02-06T23:39:27.347Z,25.09
2023-02-06T23:41:59.454Z,25.33
2023-02-06T23:44:32.122Z,25.37
2023-02-06T23:47:01.733Z,25.46
2023-02-06T23:49:34.338Z,25.38
2023-02-06T23:52:07.368Z,25.79
2023-02-06T23:54:39.992Z,25.54
2023-02-06T23:57:10.289Z,25.64
2023-02-06T23:59:42.915Z,25.69
